Time;durP1;ratioP1;P1;durP2;ratioP2;P2;SDS_P1;SDS_P2;PMS_P1;PMS_P2;Temp;Humidity;BMP_temperature;BMP_pressure;BME280_temperature;BME280_humidity;BME280_pressure;Samples;Min_cycle;Max_cycle;Signal;HPM_P1;HPM_P2
2022/10/13 00:01:56;;;;;;;7.32;3.67;;;4.10;99.90;;;;;;5015687;28;20522;-47
2022/10/13 00:04:21;;;;;;;11.57;3.75;;;4.10;99.90;;;;;;5030633;28;20025;-50
2022/10/13 00:06:47;;;;;;;9.10;3.75;;;4.10;99.90;;;;;;5047915;28;20051;-50
2022/10/13 00:09:12;;;;;;;7.85;3.58;;;4.00;99.90;;;;;;5029830;28;20051;-50
2022/10/13 00:11:37;;;;;;;4.38;2.78;;;4.00;99.90;;;;;;5047913;28;20105;-52
2022/10/13 00:14:04;;;;;;;9.65;3.40;;;4.00;99.90;;;;;;5028555;28;20087;-53
2022/10/13 00:16:30;;;;;;;7.75;3.70;;;4.00;99.90;;;;;;5047879;28;20017;-50
2022/10/13 00:18:56;;;;;;;5.72;3.60;;;3.90;99.90;;;;;;5026925;28;20033;-51
2022/10/13 00:21:25;;;;;;;8.45;3.20;;;3.90;99.90;;;;;;5046461;28;20021;-50
2022/10/13 00:23:52;;;;;;;8.10;4.32;;;3.90;99.90;;;;;;5024126;28;20070;-52
2022/10/13 00:26:19;;;;;;;9.85;3.55;;;3.90;99.90;;;;;;5012257;28;20133;-53
2022/10/13 00:28:45;;;;;;;6.00;3.08;;;3.90;99.90;;;;;;5051097;28;20032;-53
2022/10/13 00:31:19;;;;;;;7.47;3.30;;;3.90;99.90;;;;;;5030619;28;20049;-49
2022/10/13 00:33:45;;;;;;;7.82;3.20;;;3.80;99.90;;;;;;5051226;28;20124;-53
2022/10/13 00:36:10;;;;;;;7.65;3.00;;;3.80;99.90;;;;;;5030429;28;20105;-47
2022/10/13 00:38:36;;;;;;;8.43;3.15;;;3.80;99.90;;;;;;5050863;28;20025;-49
2022/10/13 00:41:02;;;;;;;10.63;2.75;;;3.80;99.90;;;;;;5030338;28;20025;-51
2022/10/13 00:44:00;;;;;;;8.65;3.15;;;3.80;99.90;;;;;;5050980;28;20033;-48
2022/10/13 00:46:31;;;;;;;8.85;2.97;;;3.80;99.90;;;;;;5011741;28;20679;-53
2022/10/13 00:49:05;;;;;;;10.32;3.70;;;3.80;99.90;;;;;;5011785;28;20088;-52
2022/10/13 00:51:35;;;;;;;8.63;3.55;;;3.70;99.90;;;;;;5011685;28;20478;-53
2022/10/13 00:54:02;;;;;;;7.25;3.15;;;3.70;99.90;;;;;;5048963;28;20479;-51
2022/10/13 00:56:28;;;;;;;8.93;3.38;;;3.70;99.90;;;;;;5051206;28;20437;-48
2022/10/13 00:58:54;;;;;;;7.20;3.65;;;3.70;99.90;;;;;;5031593;28;20448;-53
2022/10/13 01:01:21;;;;;;;6.22;3.30;;;3.70;99.90;;;;;;5030533;28;20034;-49
2022/10/13 01:03:47;;;;;;;7.07;2.90;;;3.70;99.90;;;;;;5051512;28;20025;-49
2022/10/13 01:06:13;;;;;;;4.75;2.92;;;3.70;99.90;;;;;;5029904;28;20088;-48
2022/10/13 01:08:38;;;;;;;8.18;3.05;;;3.70;99.90;;;;;;5050497;28;20037;-52
2022/10/13 01:11:21;;;;;;;9.55;3.33;;;3.70;99.90;;;;;;5029836;28;20542;-50
2022/10/13 01:14:11;;;;;;;6.55;2.90;;;3.70;99.90;;;;;;5011550;28;20033;-53
2022/10/13 01:16:45;;;;;;;10.30;3.08;;;3.70;99.90;;;;;;5011553;28;20081;-48
2022/10/13 01:19:35;;;;;;;9.68;3.97;;;3.70;99.90;;;;;;5011316;28;20167;-53
2022/10/13 01:22:18;;;;;;;7.07;3.17;;;3.70;99.90;;;;;;5051156;28;20109;-54
2022/10/13 01:25:08;;;;;;;7.60;3.58;;;3.60;99.90;;;;;;5019959;28;20108;-52
2022/10/13 01:27:50;;;;;;;9.25;3.30;;;3.60;99.90;;;;;;5050973;28;20029;-52
2022/10/13 01:30:21;;;;;;;10.40;4.43;;;3.60;99.90;;;;;;5026606;28;20037;-52
2022/10/13 01:33:08;;;;;;;7.80;3.65;;;3.60;99.90;;;;;;5029812;28;20512;-49
2022/10/13 01:35:58;;;;;;;7.60;3.60;;;3.60;99.90;;;;;;5031708;28;20630;-50
2022/10/13 01:38:41;;;;;;;6.18;3.03;;;3.50;99.90;;;;;;5010342;28;20038;-52
2022/10/13 01:41:11;;;;;;;7.93;3.30;;;3.50;99.90;;;;;;5025747;28;20060;-52
2022/10/13 01:44:11;;;;;;;12.63;3.80;;;3.50;99.90;;;;;;5050373;28;20477;-53
2022/10/13 01:46:38;;;;;;;6.88;3.35;;;3.50;99.90;;;;;;5015853;28;20451;-54
2022/10/13 01:49:09;;;;;;;6.10;3.38;;;3.50;99.90;;;;;;5030898;28;20029;-54
2022/10/13 01:51:36;;;;;;;6.35;3.05;;;3.50;99.90;;;;;;5009548;28;20456;-51
2022/10/13 01:54:02;;;;;;;7.82;3.50;;;3.50;99.90;;;;;;5049588;28;20104;-49
2022/10/13 01:56:27;;;;;;;8.35;3.40;;;3.50;99.90;;;;;;5027917;28;20125;-49
2022/10/13 01:58:56;;;;;;;8.98;3.38;;;3.50;99.90;;;;;;5049418;28;20481;-51
2022/10/13 02:01:30;;;;;;;12.73;4.22;;;3.40;99.90;;;;;;5029732;28;20312;-52
2022/10/13 02:04:07;;;;;;;8.48;3.72;;;3.40;99.90;;;;;;5050168;28;20070;-54
2022/10/13 02:07:02;;;;;;;10.80;4.03;;;3.40;99.90;;;;;;5048207;28;20092;-50
2022/10/13 02:09:37;;;;;;;6.45;3.70;;;3.40;99.90;;;;;;5009992;28;20045;-50
2022/10/13 02:12:13;;;;;;;9.40;3.45;;;3.30;99.90;;;;;;5050160;28;20446;-50
2022/10/13 02:14:40;;;;;;;;;;;3.40;99.90;;;;;;5015543;28;20040;-47
2022/10/13 02:17:06;;;;;;;6.53;3.05;;;3.30;99.90;;;;;;5050123;28;19904;-52
2022/10/13 02:19:34;;;;;;;6.97;3.50;;;3.40;99.90;;;;;;5030711;28;20116;-53
2022/10/13 02:22:01;;;;;;;8.07;3.97;;;3.30;99.90;;;;;;5049720;28;20017;-52
2022/10/13 02:24:27;;;;;;;11.85;3.72;;;3.30;99.90;;;;;;5026044;28;20444;-49
2022/10/13 02:26:52;;;;;;;6.43;3.15;;;3.30;99.90;;;;;;5049803;28;20029;-50
2022/10/13 02:29:18;;;;;;;10.13;4.00;;;3.30;99.90;;;;;;5028287;28;20029;-50
2022/10/13 02:31:45;;;;;;;10.02;4.15;;;3.30;99.90;;;;;;5049476;28;20029;-50
2022/10/13 02:34:11;;;;;;;7.70;4.00;;;3.30;99.90;;;;;;5030140;28;20098;-50
2022/10/13 02:36:38;;;;;;;6.07;3.03;;;3.30;99.90;;;;;;5028060;28;20068;-52
2022/10/13 02:39:05;;;;;;;17.63;4.60;;;3.30;99.90;;;;;;5048876;28;20045;-52
2022/10/13 02:41:30;;;;;;;11.10;4.47;;;3.40;99.90;;;;;;5028005;28;20387;-52
2022/10/13 02:43:56;;;;;;;9.40;4.28;;;3.50;99.90;;;;;;5048684;28;20080;-53
2022/10/13 02:46:21;;;;;;;9.32;3.92;;;3.60;99.90;;;;;;5027497;28;20049;-51
2022/10/13 02:48:47;;;;;;;10.25;4.80;;;3.70;99.90;;;;;;5047286;28;20346;-53
2022/10/13 02:51:12;;;;;;;7.60;4.47;;;3.80;99.90;;;;;;5027859;28;20397;-52
2022/10/13 02:53:38;;;;;;;11.93;4.35;;;3.90;99.90;;;;;;5048196;28;20043;-53
2022/10/13 02:56:04;;;;;;;10.93;4.70;;;3.90;99.90;;;;;;5028035;28;20038;-52
2022/10/13 02:58:29;;;;;;;7.57;4.53;;;4.00;99.90;;;;;;5048067;28;20029;-52
2022/10/13 03:01:11;;;;;;;9.73;4.82;;;4.10;99.90;;;;;;5027945;28;20045;-53
2022/10/13 03:03:37;;;;;;;9.35;4.75;;;4.10;99.90;;;;;;5009314;28;20042;-47
2022/10/13 03:06:02;;;;;;;10.70;4.88;;;4.20;99.90;;;;;;5032485;28;20033;-51
2022/10/13 03:08:30;;;;;;;8.43;4.63;;;4.20;99.90;;;;;;5048165;28;20079;-51
2022/10/13 03:10:56;;;;;;;9.43;4.30;;;4.20;99.90;;;;;;5026029;28;20060;-48
2022/10/13 03:13:21;;;;;;;9.23;4.50;;;4.20;99.90;;;;;;5048164;28;20032;-49
2022/10/13 03:15:47;;;;;;;12.85;4.70;;;4.10;99.90;;;;;;5027584;28;20048;-51
2022/10/13 03:18:12;;;;;;;7.15;3.83;;;4.10;99.90;;;;;;5047928;28;20032;-53
2022/10/13 03:20:38;;;;;;;12.25;3.95;;;4.10;99.90;;;;;;5036920;28;20378;-50
2022/10/13 03:23:05;;;;;;;10.10;4.90;;;4.00;99.90;;;;;;5028011;28;20037;-58
2022/10/13 03:25:32;;;;;;;6.88;3.92;;;4.00;99.90;;;;;;5035690;28;20112;-57
2022/10/13 03:27:57;;;;;;;9.93;4.70;;;3.90;99.90;;;;;;5029538;28;20039;-56
2022/10/13 03:30:22;;;;;;;9.02;4.68;;;3.90;99.90;;;;;;5045886;28;20496;-59
2022/10/13 03:32:48;;;;;;;12.38;4.70;;;3.90;99.90;;;;;;5048864;28;20047;-58
2022/10/13 03:35:13;;;;;;;12.25;5.40;;;3.90;99.90;;;;;;5027584;28;20523;-59
2022/10/13 03:37:39;;;;;;;8.02;4.38;;;3.80;99.90;;;;;;5028860;28;20017;-56
2022/10/13 03:40:05;;;;;;;11.57;4.40;;;3.80;99.90;;;;;;5031227;28;20497;-58
2022/10/13 03:42:31;;;;;;;10.73;5.50;;;3.70;99.90;;;;;;5048689;28;20032;-58
2022/10/13 03:44:56;;;;;;;7.40;4.15;;;3.80;99.90;;;;;;5029980;28;20021;-58
2022/10/13 03:47:22;;;;;;;8.85;4.38;;;3.70;99.90;;;;;;5048415;28;20028;-59
2022/10/13 03:49:47;;;;;;;12.60;5.30;;;3.70;99.90;;;;;;5028861;28;20398;-59
2022/10/13 03:52:13;;;;;;;12.40;5.20;;;3.60;99.90;;;;;;5048474;28;20396;-59
2022/10/13 03:54:38;;;;;;;14.75;5.30;;;3.60;99.90;;;;;;5027630;28;20129;-57
2022/10/13 03:57:04;;;;;;;10.32;4.38;;;3.60;99.90;;;;;;5047659;28;20037;-58
2022/10/13 03:59:30;;;;;;;8.05;4.50;;;3.60;99.90;;;;;;5028428;28;20143;-58
2022/10/13 04:01:55;;;;;;;8.82;4.57;;;3.50;99.90;;;;;;5032474;28;20056;-58
2022/10/13 04:04:21;;;;;;;16.30;5.68;;;3.50;99.90;;;;;;5048259;28;20021;-58
2022/10/13 04:06:46;;;;;;;12.82;5.07;;;3.50;99.90;;;;;;5027284;28;20038;-58
2022/10/13 04:09:12;;;;;;;9.43;5.22;;;3.50;99.90;;;;;;5047442;28;20032;-58
2022/10/13 04:11:37;;;;;;;13.68;6.03;;;3.50;99.90;;;;;;5027239;28;20030;-58
2022/10/13 04:14:03;;;;;;;16.08;6.05;;;3.50;99.90;;;;;;5047550;28;20107;-58
2022/10/13 04:16:29;;;;;;;12.35;5.20;;;3.40;99.90;;;;;;5027333;28;20033;-58
2022/10/13 04:19:00;;;;;;;10.80;4.82;;;3.40;99.90;;;;;;5035365;28;20135;-56
2022/10/13 04:21:27;;;;;;;12.30;5.63;;;3.40;99.90;;;;;;5021334;28;20075;-58
2022/10/13 04:23:56;;;;;;;14.80;8.55;;;3.40;99.90;;;;;;5039584;28;20025;-58
2022/10/13 04:26:22;;;;;;;30.67;11.75;;;3.40;99.90;;;;;;5026783;28;20048;-58
2022/10/13 04:28:49;;;;;;;20.85;10.38;;;3.40;99.90;;;;;;5047797;28;20480;-58
2022/10/13 04:31:16;;;;;;;22.85;10.45;;;3.40;99.90;;;;;;5028481;28;20075;-59
2022/10/13 04:33:41;;;;;;;29.05;11.63;;;3.30;99.90;;;;;;5048120;28;20470;-57
2022/10/13 04:36:09;;;;;;;28.25;11.38;;;3.30;99.90;;;;;;5027094;28;20037;-59
2022/10/13 04:38:35;;;;;;;27.25;12.52;;;3.30;99.90;;;;;;5026961;28;20029;-58
2022/10/13 04:41:05;;;;;;;22.63;9.88;;;3.30;99.90;;;;;;5045348;28;20041;-57
2022/10/13 04:43:31;;;;;;;40.45;13.27;;;3.30;99.90;;;;;;5028518;28;20021;-59
2022/10/13 04:46:02;;;;;;;42.03;15.65;;;3.30;99.90;;;;;;5045480;28;20461;-58
2022/10/13 04:48:28;;;;;;;40.30;15.55;;;3.30;99.90;;;;;;5028422;28;20028;-58
2022/10/13 04:51:01;;;;;;;26.13;11.30;;;3.30;99.90;;;;;;5045413;28;20397;-58
2022/10/13 04:53:28;;;;;;;23.48;9.57;;;3.30;99.90;;;;;;5028319;28;20026;-58
2022/10/13 04:55:55;;;;;;;27.25;10.25;;;3.30;99.90;;;;;;5045367;28;20029;-59
2022/10/13 04:58:20;;;;;;;42.88;13.55;;;3.30;99.90;;;;;;5028480;28;20329;-58
2022/10/13 05:00:46;;;;;;;26.95;10.88;;;3.30;99.90;;;;;;5045072;28;20098;-58
2022/10/13 05:03:12;;;;;;;31.30;11.75;;;3.40;99.90;;;;;;5028123;28;20045;-58
2022/10/13 05:05:37;;;;;;;22.63;9.50;;;3.40;99.90;;;;;;5036062;28;20040;-57
2022/10/13 05:08:03;;;;;;;30.13;11.18;;;3.40;99.90;;;;;;5045539;28;20029;-59
2022/10/13 05:10:29;;;;;;;28.55;11.35;;;3.50;99.90;;;;;;5034749;28;20396;-59
2022/10/13 05:12:54;;;;;;;31.80;12.27;;;3.50;99.90;;;;;;5051603;28;20128;-59
2022/10/13 05:15:20;;;;;;;22.75;10.80;;;3.60;99.90;;;;;;5029133;28;20033;-58
2022/10/13 05:17:45;;;;;;;20.83;10.05;;;3.60;99.90;;;;;;5048166;28;20112;-57
2022/10/13 05:20:11;;;;;;;17.48;7.97;;;3.70;99.90;;;;;;5047387;28;20048;-58
2022/10/13 05:22:36;;;;;;;13.30;7.05;;;3.80;99.90;;;;;;5047691;28;20455;-57
2022/10/13 05:25:03;;;;;;;17.40;8.48;;;3.80;99.90;;;;;;5023076;28;20187;-57
2022/10/13 05:27:28;;;;;;;19.02;7.95;;;3.90;99.90;;;;;;5042076;28;20096;-57
2022/10/13 05:29:54;;;;;;;16.85;8.90;;;4.00;99.90;;;;;;5027754;28;20124;-57
2022/10/13 05:32:19;;;;;;;14.88;7.13;;;4.10;99.90;;;;;;5050089;28;20013;-57
2022/10/13 05:34:47;;;;;;;15.82;7.03;;;4.20;99.90;;;;;;5030446;28;20487;-58
2022/10/13 05:37:15;;;;;;;15.25;8.23;;;4.30;99.90;;;;;;5028666;28;20125;-58
2022/10/13 05:39:41;;;;;;;17.73;8.60;;;4.30;99.90;;;;;;5046702;28;20037;-58
2022/10/13 05:42:06;;;;;;;18.83;9.20;;;4.50;99.90;;;;;;5027969;28;20559;-58
2022/10/13 05:44:32;;;;;;;14.98;8.00;;;4.60;99.90;;;;;;5047097;28;20055;-56
2022/10/13 05:46:58;;;;;;;21.20;9.18;;;4.70;99.90;;;;;;5027995;28;20084;-57
2022/10/13 05:49:23;;;;;;;12.60;7.38;;;4.90;99.90;;;;;;5048777;28;20276;-57
2022/10/13 05:52:01;;;;;;;18.15;7.80;;;5.00;99.90;;;;;;5028506;28;20533;-58
2022/10/13 05:54:28;;;;;;;11.80;6.93;;;5.10;99.90;;;;;;5009597;28;20033;-58
2022/10/13 05:57:04;;;;;;;13.75;6.45;;;5.30;99.90;;;;;;5031329;28;20043;-57
2022/10/13 05:59:33;;;;;;;13.57;6.38;;;5.50;99.90;;;;;;5009626;28;20052;-57
2022/10/13 06:02:01;;;;;;;12.05;7.43;;;5.60;99.90;;;;;;5037452;28;20386;-56
2022/10/13 06:04:34;;;;;;;12.15;6.03;;;5.80;99.90;;;;;;5029681;28;20053;-56
2022/10/13 06:07:00;;;;;;;13.02;6.18;;;6.00;99.90;;;;;;5022641;28;20087;-57
2022/10/13 06:09:33;;;;;;;12.65;6.65;;;6.30;99.90;;;;;;5048556;28;20037;-56
2022/10/13 06:11:59;;;;;;;17.10;7.18;;;6.70;99.90;;;;;;5024085;28;20052;-55
2022/10/13 06:14:24;;;;;;;13.50;7.18;;;7.10;99.90;;;;;;5045086;28;20041;-56
2022/10/13 06:16:49;;;;;;;10.50;5.97;;;7.60;99.90;;;;;;5027556;28;20481;-55
2022/10/13 06:19:15;;;;;;;11.13;5.95;;;8.10;99.90;;;;;;5048035;28;20033;-56
2022/10/13 06:21:40;;;;;;;12.32;6.65;;;8.30;99.90;;;;;;5026815;28;20040;-55
2022/10/13 06:24:06;;;;;;;14.13;7.13;;;8.30;99.90;;;;;;5041651;28;20024;-57
2022/10/13 06:26:32;;;;;;;14.80;7.43;;;8.20;99.90;;;;;;5027836;28;20029;-55
2022/10/13 06:28:57;;;;;;;14.23;7.38;;;8.00;99.90;;;;;;5048251;28;20033;-55
2022/10/13 06:31:25;;;;;;;18.15;7.80;;;7.90;99.90;;;;;;5037753;28;20063;-57
2022/10/13 06:33:50;;;;;;;14.85;6.32;;;7.90;99.90;;;;;;5029061;28;20200;-55
2022/10/13 06:36:16;;;;;;;12.82;7.25;;;7.80;99.90;;;;;;5046076;28;20260;-57
2022/10/13 06:38:41;;;;;;;17.52;8.45;;;7.70;99.90;;;;;;5028431;28;20454;-57
2022/10/13 06:41:07;;;;;;;23.35;7.97;;;7.70;99.90;;;;;;5046058;28;20036;-56
2022/10/13 06:43:33;;;;;;;13.20;7.80;;;7.70;99.90;;;;;;5028877;28;20025;-56
2022/10/13 06:45:59;;;;;;;13.02;7.28;;;7.70;99.90;;;;;;5046004;28;20225;-56
2022/10/13 06:48:26;;;;;;;13.85;7.25;;;7.70;99.90;;;;;;5048510;28;20036;-55
2022/10/13 06:50:52;;;;;;;9.93;6.47;;;7.70;99.90;;;;;;5032728;28;20036;-57
2022/10/13 06:53:17;;;;;;;11.07;6.40;;;7.80;99.90;;;;;;5047230;28;20020;-56
2022/10/13 06:55:43;;;;;;;11.43;6.75;;;7.80;99.90;;;;;;5031177;28;20485;-55
2022/10/13 06:58:09;;;;;;;12.48;7.30;;;7.80;99.90;;;;;;5048279;28;20385;-57
2022/10/13 07:00:36;;;;;;;12.07;6.40;;;7.90;99.90;;;;;;5030096;28;20096;-57
2022/10/13 07:03:02;;;;;;;14.65;6.57;;;7.90;99.90;;;;;;5036782;28;20505;-57
2022/10/13 07:05:27;;;;;;;12.07;6.63;;;8.00;99.90;;;;;;5046653;28;20087;-57
2022/10/13 07:07:53;;;;;;;11.82;6.22;;;8.00;99.90;;;;;;5049423;28;20032;-58
2022/10/13 07:10:19;;;;;;;15.85;6.50;;;8.10;99.90;;;;;;5028409;28;20454;-57
2022/10/13 07:12:44;;;;;;;18.30;7.85;;;8.20;99.90;;;;;;5049189;28;20095;-57
2022/10/13 07:15:10;;;;;;;11.68;6.72;;;8.30;99.90;;;;;;5028424;28;20025;-57
2022/10/13 07:17:36;;;;;;;14.48;7.05;;;8.40;99.90;;;;;;5046398;28;20036;-57
2022/10/13 07:20:03;;;;;;;12.68;7.50;;;8.50;99.90;;;;;;5029356;28;20087;-57
2022/10/13 07:22:29;;;;;;;19.92;10.57;;;8.70;99.90;;;;;;5023150;28;20033;-58
2022/10/13 07:24:55;;;;;;;13.85;7.40;;;8.80;99.90;;;;;;5048849;28;20554;-57
2022/10/13 07:27:21;;;;;;;12.05;6.28;;;8.90;99.90;;;;;;5027410;28;20030;-57
2022/10/13 07:29:46;;;;;;;13.05;6.63;;;9.00;99.90;;;;;;5047965;28;20083;-58
2022/10/13 07:32:12;;;;;;;11.15;6.35;;;9.10;99.90;;;;;;5027344;28;20056;-48
2022/10/13 07:34:37;;;;;;;13.32;6.53;;;9.20;99.90;;;;;;5047825;28;20522;-49
2022/10/13 07:37:03;;;;;;;17.13;7.90;;;9.30;99.90;;;;;;5027508;28;20438;-51
2022/10/13 07:39:28;;;;;;;14.15;7.20;;;9.30;99.90;;;;;;5047493;28;20037;-47
2022/10/13 07:41:54;;;;;;;14.52;7.97;;;9.40;99.90;;;;;;5027229;28;20040;-47
2022/10/13 07:44:19;;;;;;;11.32;6.80;;;9.50;99.90;;;;;;5047649;28;20760;-46
2022/10/13 07:46:45;;;;;;;14.20;7.57;;;9.60;99.90;;;;;;5025901;28;20113;-49
2022/10/13 07:49:10;;;;;;;19.50;6.75;;;9.60;99.90;;;;;;5046459;28;20029;-48
2022/10/13 07:51:36;;;;;;;11.18;6.05;;;9.70;99.90;;;;;;5037181;28;20036;-52
2022/10/13 07:54:01;;;;;;;9.45;5.22;;;9.90;99.90;;;;;;5028799;28;20370;-50
2022/10/13 07:56:26;;;;;;;13.45;5.63;;;10.20;99.90;;;;;;5045490;28;20033;-52
2022/10/13 07:58:52;;;;;;;13.57;6.53;;;10.60;99.90;;;;;;5028630;28;20497;-49
2022/10/13 08:01:17;;;;;;;11.93;6.30;;;10.90;99.90;;;;;;5045242;28;20068;-47
2022/10/13 08:03:44;;;;;;;10.48;6.10;;;11.30;99.90;;;;;;5048219;28;20024;-49
2022/10/13 08:06:09;;;;;;;11.82;7.22;;;11.60;99.90;;;;;;5032878;28;20412;-50
2022/10/13 08:08:36;;;;;;;14.23;6.40;;;11.80;99.50;;;;;;5048477;28;20284;-49
2022/10/13 08:11:08;;;;;;;11.30;6.75;;;11.90;99.90;;;;;;5031669;28;20033;-49
2022/10/13 08:13:34;;;;;;;13.05;6.70;;;12.10;99.90;;;;;;5048048;28;20036;-48
2022/10/13 08:16:01;;;;;;;12.45;6.25;;;12.30;99.90;;;;;;5031197;28;20049;-51
2022/10/13 08:18:27;;;;;;;13.38;6.28;;;12.60;99.90;;;;;;5047993;28;20071;-47
2022/10/13 08:20:53;;;;;;;9.38;5.78;;;12.70;99.90;;;;;;5029984;28;20037;-50
2022/10/13 08:23:18;;;;;;;10.15;5.47;;;13.00;99.90;;;;;;5032693;28;20021;-46
2022/10/13 08:25:44;;;;;;;12.48;6.05;;;13.30;97.20;;;;;;5045285;28;20029;-46
2022/10/13 08:28:22;;;;;;;10.45;5.72;;;13.40;99.20;;;;;;5048172;28;20028;-49
2022/10/13 08:30:49;;;;;;;9.85;6.57;;;13.70;97.80;;;;;;5028402;28;20036;-48
2022/10/13 08:33:14;;;;;;;12.63;5.72;;;13.90;97.40;;;;;;5047934;28;20029;-50
2022/10/13 08:35:41;;;;;;;9.10;5.95;;;14.10;96.00;;;;;;5027812;28;20322;-48
2022/10/13 08:38:07;;;;;;;9.77;5.70;;;14.20;92.20;;;;;;5047802;28;20032;-49
2022/10/13 08:40:34;;;;;;;9.10;5.80;;;14.50;96.30;;;;;;5026436;28;20045;-48
2022/10/13 08:42:59;;;;;;;7.68;5.30;;;14.60;95.20;;;;;;5047876;28;20026;-50
2022/10/13 08:45:28;;;;;;;9.55;5.35;;;14.80;93.00;;;;;;5031664;28;20025;-49
2022/10/13 08:48:01;;;;;;;7.13;5.03;;;14.90;91.40;;;;;;5030465;28;20072;-46
2022/10/13 08:50:34;;;;;;;11.05;5.18;;;14.90;91.90;;;;;;5012042;28;20034;-50
2022/10/13 08:53:10;;;;;;;9.25;5.82;;;15.10;91.80;;;;;;5012244;28;20034;-49
2022/10/13 08:55:43;;;;;;;8.88;5.38;;;15.40;91.40;;;;;;5010080;28;20030;-44
2022/10/13 08:58:15;;;;;;;9.15;5.25;;;15.60;90.80;;;;;;5051609;28;20495;-44
2022/10/13 09:00:41;;;;;;;10.40;5.28;;;15.60;85.40;;;;;;5011437;28;20046;-50
2022/10/13 09:03:23;;;;;;;9.60;5.53;;;15.80;88.70;;;;;;5051411;28;20041;-49
2022/10/13 09:06:06;;;;;;;10.98;5.57;;;16.00;77.00;;;;;;5013200;28;20058;-48
2022/10/13 09:08:39;;;;;;;8.32;4.65;;;16.20;83.00;;;;;;5051221;28;20071;-48
2022/10/13 09:11:04;;;;;;;6.97;4.68;;;16.40;81.20;;;;;;5017105;28;20032;-46
2022/10/13 09:13:30;;;;;;;7.55;4.97;;;16.60;79.70;;;;;;5051363;28;20385;-51
2022/10/13 09:15:56;;;;;;;10.48;5.32;;;16.60;76.90;;;;;;5032038;28;20128;-49
2022/10/13 09:18:29;;;;;;;7.72;5.15;;;16.60;73.90;;;;;;5051052;28;20017;-45
2022/10/13 09:21:09;;;;;;;6.90;4.82;;;16.70;74.30;;;;;;5013585;28;20057;-48
2022/10/13 09:23:35;;;;;;;6.65;4.80;;;16.90;68.00;;;;;;5037249;28;20205;-52
2022/10/13 09:26:07;;;;;;;7.60;4.85;;;16.90;69.40;;;;;;5047268;28;24089;-46
2022/10/13 09:28:33;;;;;;;9.45;6.28;;;16.90;69.80;;;;;;5051095;28;20025;-45
2022/10/13 09:31:06;;;;;;;9.80;5.88;;;16.90;67.30;;;;;;5031781;28;20079;-45
2022/10/13 09:33:36;;;;;;;8.50;4.82;;;16.80;63.30;;;;;;5051013;28;20032;-46
2022/10/13 09:36:02;;;;;;;7.93;5.90;;;16.80;67.90;;;;;;5032156;28;20029;-45
2022/10/13 09:38:27;;;;;;;12.63;6.55;;;16.90;67.20;;;;;;5050803;28;20032;-46
2022/10/13 09:41:03;;;;;;;9.55;5.55;;;16.80;66.10;;;;;;5030496;28;20088;-45
2022/10/13 09:43:42;;;;;;;11.68;6.70;;;16.80;64.90;;;;;;5050558;28;20558;-47
2022/10/13 09:46:30;;;;;;;10.25;5.90;;;16.70;65.70;;;;;;5015123;28;20041;-45
2022/10/13 09:49:19;;;;;;;10.45;6.15;;;16.70;62.70;;;;;;5050917;28;20037;-51
2022/10/13 09:51:46;;;;;;;7.93;4.90;;;16.60;64.10;;;;;;5025425;28;20477;-45
2022/10/13 09:54:33;;;;;;;11.73;5.05;;;16.70;66.10;;;;;;5031125;28;20120;-45
2022/10/13 09:57:04;;;;;;;13.38;6.20;;;16.80;62.30;;;;;;5047833;28;20112;-47
2022/10/13 09:59:36;;;;;;;11.95;6.20;;;16.70;62.70;;;;;;5010797;28;20133;-50
2022/10/13 10:02:28;;;;;;;12.43;6.53;;;16.70;64.70;;;;;;5047900;28;20053;-45
2022/10/13 10:04:58;;;;;;;12.75;6.68;;;16.60;62.40;;;;;;5010675;28;20556;-48
2022/10/13 10:07:28;;;;;;;10.25;6.53;;;16.40;64.90;;;;;;5035650;28;20029;-45
2022/10/13 10:10:00;;;;;;;11.15;6.35;;;16.30;66.10;;;;;;5010715;28;20245;-47
2022/10/13 10:12:29;;;;;;;8.70;6.00;;;16.30;66.30;;;;;;5035457;28;20068;-46
2022/10/13 10:14:54;;;;;;;8.55;5.65;;;16.20;67.40;;;;;;5049716;28;20041;-46
2022/10/13 10:17:52;;;;;;;13.98;6.47;;;16.20;66.90;;;;;;5028699;28;20548;-45
2022/10/13 10:20:40;;;;;;;9.93;6.18;;;16.20;66.40;;;;;;5010389;28;20190;-45
2022/10/13 10:23:17;;;;;;;14.18;6.45;;;16.10;67.50;;;;;;5026255;28;20029;-56
2022/10/13 10:25:49;;;;;;;8.60;5.60;;;16.10;68.60;;;;;;5050095;28;20032;-45
2022/10/13 10:28:39;;;;;;;8.13;5.13;;;16.20;68.80;;;;;;5028130;28;20037;-44
2022/10/13 10:31:38;;;;;;;10.82;6.30;;;16.20;69.00;;;;;;5009888;28;20401;-44
2022/10/13 10:34:31;;;;;;;9.05;5.80;;;16.30;68.80;;;;;;5049840;28;20035;-45
2022/10/13 10:37:23;;;;;;;10.77;6.65;;;16.40;69.50;;;;;;5025084;28;20025;-44
2022/10/13 10:40:03;;;;;;;9.55;5.28;;;16.40;68.00;;;;;;5010240;28;20041;-47
2022/10/13 10:42:47;;;;;;;7.13;5.10;;;16.40;69.60;;;;;;5020897;28;20034;-45
2022/10/13 10:45:25;;;;;;;9.20;5.90;;;16.40;70.20;;;;;;5010097;28;20137;-45
2022/10/13 10:47:57;;;;;;;12.68;5.60;;;16.50;69.70;;;;;;5023618;28;20052;-45
2022/10/13 10:50:23;;;;;;;8.77;5.03;;;16.50;70.20;;;;;;5009828;28;20041;-45
2022/10/13 10:53:05;;;;;;;7.28;4.85;;;16.60;70.50;;;;;;5031265;28;20030;-46
2022/10/13 10:55:38;;;;;;;7.90;4.68;;;16.60;70.50;;;;;;5009896;28;20037;-45
2022/10/13 10:58:23;;;;;;;8.65;4.85;;;16.70;70.50;;;;;;5025011;28;20435;-45
2022/10/13 11:01:06;;;;;;;16.92;6.10;;;16.70;70.30;;;;;;5009476;28;20402;-45
2022/10/13 11:03:56;;;;;;;13.10;6.95;;;16.70;68.70;;;;;;5008505;28;20120;-44
2022/10/13 11:06:31;;;;;;;9.90;6.63;;;16.60;68.70;;;;;;5046116;28;20041;-45
2022/10/13 11:08:57;;;;;;;10.98;6.15;;;16.40;70.10;;;;;;5049168;28;20108;-46
2022/10/13 11:11:22;;;;;;;12.13;5.32;;;16.30;71.20;;;;;;5030481;28;20178;-46
2022/10/13 11:14:05;;;;;;;12.93;6.10;;;16.40;72.00;;;;;;5049130;28;20511;-45
2022/10/13 11:16:51;;;;;;;10.48;6.85;;;16.40;71.20;;;;;;5031301;28;20099;-46
2022/10/13 11:19:28;;;;;;;10.33;6.80;;;16.30;72.60;;;;;;5048731;28;20060;-47
2022/10/13 11:21:53;;;;;;;9.90;6.05;;;16.30;73.00;;;;;;5020973;28;20024;-44
2022/10/13 11:24:41;;;;;;;8.25;5.85;;;16.30;73.80;;;;;;5027850;28;20021;-45
2022/10/13 11:27:15;;;;;;;10.38;5.78;;;16.30;73.90;;;;;;5045957;28;20029;-45
2022/10/13 11:29:47;;;;;;;9.43;5.97;;;16.20;74.70;;;;;;5029384;28;20033;-47
2022/10/13 11:35:05;;;;;;;13.63;7.03;;;16.10;75.40;;;;;;5009195;28;20037;-57
2022/10/13 11:37:55;;;;;;;12.30;7.25;;;16.10;75.70;;;;;;5033963;28;20115;-57
2022/10/13 11:40:45;;;;;;;15.90;6.90;;;15.90;76.60;;;;;;5047571;28;20037;-57
2022/10/13 11:43:23;;;;;;;13.63;7.93;;;15.80;78.10;;;;;;5023795;28;20053;-57
2022/10/13 11:45:56;;;;;;;10.38;7.32;;;15.70;78.70;;;;;;5009151;28;20026;-57
2022/10/13 11:48:34;;;;;;;11.20;7.07;;;15.70;79.60;;;;;;5024975;28;20486;-57
2022/10/13 11:51:14;;;;;;;8.00;6.28;;;15.60;80.20;;;;;;5008773;28;20072;-56
2022/10/13 11:53:54;;;;;;;16.02;6.25;;;15.70;81.20;;;;;;5019430;28;20033;-57
2022/10/13 11:56:45;;;;;;;11.25;6.78;;;15.80;81.30;;;;;;5023559;28;20584;-57
2022/10/13 11:59:28;;;;;;;11.90;7.03;;;15.90;82.20;;;;;;5032252;28;20034;-57
2022/10/13 12:01:55;;;;;;;10.07;6.70;;;16.00;80.10;;;;;;5028818;28;20049;-57
2022/10/13 12:04:23;;;;;;;9.18;6.43;;;16.10;79.30;;;;;;5037690;28;20032;-57
2022/10/13 12:07:01;;;;;;;9.85;6.15;;;16.20;79.10;;;;;;5030169;28;20029;-57
2022/10/13 12:09:30;;;;;;;10.57;6.35;;;16.30;78.30;;;;;;5028091;28;20025;-57
2022/10/13 12:12:10;;;;;;;14.23;6.55;;;16.40;78.00;;;;;;5046001;28;20040;-57
2022/10/13 12:14:42;;;;;;;12.40;7.13;;;16.50;78.00;;;;;;5048299;28;20108;-58
2022/10/13 12:17:24;;;;;;;11.02;7.32;;;16.50;77.10;;;;;;5033368;28;20029;-56
2022/10/13 12:19:51;;;;;;;11.60;6.95;;;16.50;77.30;;;;;;5007867;28;20478;-57
2022/10/13 12:22:16;;;;;;;10.98;7.18;;;16.50;77.20;;;;;;5044999;28;20044;-55
2022/10/13 12:24:42;;;;;;;11.90;6.53;;;16.50;77.60;;;;;;5025502;28;20032;-58
2022/10/13 12:27:19;;;;;;;11.43;7.80;;;16.50;77.80;;;;;;5045650;28;20487;-56
2022/10/13 12:29:45;;;;;;;10.60;6.57;;;16.50;78.50;;;;;;5048249;28;20053;-57
2022/10/13 12:32:24;;;;;;;10.25;7.05;;;16.60;78.10;;;;;;5033963;28;20060;-57
2022/10/13 12:34:49;;;;;;;10.57;5.82;;;16.60;77.80;;;;;;5007361;28;20038;-57
2022/10/13 12:37:24;;;;;;;11.40;6.05;;;16.60;77.40;;;;;;5044899;28;20396;-57
2022/10/13 12:39:50;;;;;;;12.93;6.30;;;16.60;77.80;;;;;;5028724;28;20017;-57
2022/10/13 12:42:16;;;;;;;12.35;6.03;;;16.70;78.10;;;;;;5038091;28;20034;-57
2022/10/13 12:44:42;;;;;;;11.02;6.47;;;16.70;78.80;;;;;;5028405;28;20071;-58
2022/10/13 12:47:42;;;;;;;12.15;8.00;;;16.70;78.80;;;;;;5044186;28;20052;-56
2022/10/13 12:50:29;;;;;;;11.48;6.60;;;16.60;77.00;;;;;;5048161;28;20021;-57
2022/10/13 12:52:54;;;;;;;;;;;16.70;77.90;;;;;;5019729;28;20095;-56
2022/10/13 12:55:21;;;;;;;7.77;5.67;;;16.70;78.80;;;;;;5047195;28;19912;-58
2022/10/13 12:57:50;;;;;;;9.80;6.35;;;16.70;77.60;;;;;;5026641;28;20416;-57
2022/10/13 13:00:21;;;;;;;12.32;6.68;;;16.70;78.40;;;;;;5047026;28;20125;-56
2022/10/13 13:02:59;;;;;;;8.82;6.07;;;16.70;79.10;;;;;;5025981;28;20133;-57
2022/10/13 13:05:33;;;;;;;11.80;6.97;;;16.70;79.00;;;;;;5007075;28;20160;-57